createdAt,value
2023-02-25T00:01:36.821Z,14.70
2023-02-25T00:04:04.124Z,13.37
2023-02-25T00:06:31.338Z,15.43
2023-02-25T00:08:58.561Z,15.48
2023-02-25T00:11:26.561Z,13.00
2023-02-25T00:13:54.156Z,14.05
2023-02-25T00:16:23.738Z,17.75
2023-02-25T00:18:59.582Z,15.38
2023-02-25T00:21:29.332Z,12.98
2023-02-25T00:24:04.484Z,12.02
2023-02-25T00:26:41.592Z,14.57
2023-02-25T00:29:08.672Z,17.85
2023-02-25T00:31:35.807Z,15.45
2023-02-25T00:34:03.236Z,19.67
2023-02-25T00:36:32.594Z,20.50
2023-02-25T00:38:59.694Z,12.98
2023-02-25T00:41:29.153Z,16.27
2023-02-25T00:43:59.659Z,14.70
2023-02-25T00:46:28.436Z,13.95
2023-02-25T00:48:55.671Z,13.43
2023-02-25T00:51:25.360Z,12.33
2023-02-25T00:53:54.016Z,19.58
2023-02-25T00:56:21.334Z,8.38
2023-02-25T00:58:50.452Z,12.85
2023-02-25T01:01:20.150Z,14.35
2023-02-25T01:03:48.759Z,10.63
2023-02-25T01:06:16.044Z,13.40
2023-02-25T01:08:44.009Z,12.18
2023-02-25T01:11:17.261Z,15.60
2023-02-25T01:13:44.320Z,14.55
2023-02-25T01:16:16.503Z,14.63
2023-02-25T01:18:44.392Z,19.48
2023-02-25T01:21:20.770Z,10.57
2023-02-25T01:23:57.422Z,11.23
2023-02-25T01:26:27.497Z,16.58
2023-02-25T01:28:55.923Z,14.77
2023-02-25T01:31:25.090Z,13.13
2023-02-25T01:33:52.173Z,14.43
2023-02-25T01:36:19.180Z,11.40
2023-02-25T01:38:46.284Z,10.67
2023-02-25T01:41:13.252Z,15.63
2023-02-25T01:43:41.315Z,14.63
2023-02-25T01:46:08.522Z,9.68
2023-02-25T01:48:39.718Z,8.38
2023-02-25T01:51:14.732Z,4.45
2023-02-25T01:53:46.940Z,9.00
2023-02-25T01:56:18.321Z,7.35
2023-02-25T01:58:45.404Z,11.77
2023-02-25T02:01:17.110Z,9.48
2023-02-25T02:03:47.340Z,10.43
2023-02-25T02:06:28.216Z,7.75
2023-02-25T02:08:55.904Z,9.38
2023-02-25T02:11:23.050Z,7.45
2023-02-25T02:13:54.843Z,6.87
2023-02-25T02:16:49.817Z,8.48
2023-02-25T02:19:27.793Z,8.73
2023-02-25T02:25:20.234Z,6.75
2023-02-25T02:27:58.252Z,8.93
2023-02-25T02:33:10.203Z,7.63
2023-02-25T02:36:29.664Z,8.13
2023-02-25T02:39:21.296Z,6.13
2023-02-25T02:42:11.265Z,7.65
2023-02-25T02:44:51.894Z,10.68
2023-02-25T02:47:26.736Z,7.10
2023-02-25T02:50:11.870Z,6.72
2023-02-25T02:52:43.172Z,4.07
2023-02-25T02:55:22.659Z,8.25
2023-02-25T02:57:58.034Z,5.28
2023-02-25T03:00:29.326Z,4.97
2023-02-25T03:03:05.357Z,4.95
2023-02-25T03:05:35.309Z,4.65
2023-02-25T03:08:09.703Z,5.88
2023-02-25T03:10:37.603Z,3.67
2023-02-25T03:13:05.337Z,2.65
2023-02-25T03:15:33.496Z,5.80
2023-02-25T03:20:47.675Z,3.33
2023-02-25T03:23:19.172Z,4.03
2023-02-25T03:25:53.230Z,3.17
2023-02-25T03:28:31.296Z,2.50
2023-02-25T03:31:06.551Z,3.17
2023-02-25T03:34:00.701Z,3.22
2023-02-25T03:36:53.659Z,3.17
2023-02-25T03:39:29.070Z,2.58
2023-02-25T03:41:59.943Z,5.90
2023-02-25T03:44:45.713Z,2.70
2023-02-25T03:47:14.473Z,1.85
2023-02-25T03:49:59.152Z,1.70
2023-02-25T03:52:29.294Z,3.25
2023-02-25T03:55:00.955Z,2.47
2023-02-25T03:57:39.521Z,1.95
2023-02-25T04:00:29.027Z,3.05
2023-02-25T04:02:56.622Z,1.88
2023-02-25T04:05:28.307Z,4.30
2023-02-25T04:07:58.065Z,1.77
2023-02-25T04:10:28.362Z,3.47
2023-02-25T04:12:55.735Z,3.33
2023-02-25T04:15:22.831Z,1.55
2023-02-25T04:17:49.814Z,3.33
2023-02-25T04:20:17.346Z,1.73
2023-02-25T04:22:44.647Z,1.40
2023-02-25T04:25:11.899Z,3.63
2023-02-25T04:27:39.110Z,3.55
2023-02-25T04:30:06.644Z,3.47
2023-02-25T04:32:39.443Z,1.98
2023-02-25T04:35:11.612Z,3.85
2023-02-25T04:37:39.717Z,2.38
2023-02-25T04:42:41.078Z,4.57
2023-02-25T04:45:09.568Z,3.38
2023-02-25T04:47:37.509Z,4.30
2023-02-25T04:50:05.485Z,4.20
2023-02-25T04:55:02.266Z,3.05
2023-02-25T04:57:29.388Z,4.85
2023-02-25T04:59:56.458Z,3.27
2023-02-25T05:02:26.111Z,3.60
2023-02-25T05:04:53.173Z,3.00
2023-02-25T05:07:20.503Z,3.80
2023-02-25T05:09:47.452Z,3.80
2023-02-25T05:12:14.791Z,4.95
2023-02-25T05:14:41.899Z,2.10
2023-02-25T05:17:08.863Z,3.85
2023-02-25T05:19:36.070Z,3.28
2023-02-25T05:22:05.114Z,4.07
2023-02-25T05:24:32.192Z,3.78
2023-02-25T05:27:08.463Z,4.73
2023-02-25T05:29:36.356Z,2.13
2023-02-25T05:32:03.917Z,4.53
2023-02-25T05:34:31.178Z,2.75
2023-02-25T05:36:58.250Z,3.40
2023-02-25T05:39:25.675Z,3.50
2023-02-25T05:41:52.617Z,4.65
2023-02-25T05:44:19.598Z,4.50
2023-02-25T05:46:46.868Z,5.87
2023-02-25T05:49:14.095Z,3.30
2023-02-25T05:51:41.106Z,3.57
2023-02-25T05:54:08.159Z,2.20
2023-02-25T05:56:36.415Z,6.82
2023-02-25T05:59:04.056Z,2.83
2023-02-25T06:01:33.909Z,3.90
2023-02-25T06:04:01.227Z,2.50
2023-02-25T06:06:29.849Z,3.35
2023-02-25T06:08:56.957Z,4.25
2023-02-25T06:11:28.686Z,1.87
2023-02-25T06:13:57.067Z,3.65
2023-02-25T06:16:25.991Z,4.40
2023-02-25T06:18:53.342Z,5.65
2023-02-25T06:21:20.477Z,6.40
2023-02-25T06:23:50.313Z,3.30
2023-02-25T06:26:17.906Z,4.03
2023-02-25T06:28:45.175Z,5.07
2023-02-25T06:31:15.520Z,6.60
2023-02-25T06:33:42.787Z,3.17
2023-02-25T06:36:10.543Z,6.03
2023-02-25T06:38:37.539Z,3.28
2023-02-25T06:41:09.710Z,3.97
2023-02-25T06:43:38.304Z,6.38
2023-02-25T06:46:07.196Z,6.80
2023-02-25T06:48:35.013Z,9.18
2023-02-25T06:51:02.933Z,5.97
2023-02-25T06:53:30.015Z,7.78
2023-02-25T06:55:59.074Z,6.10
2023-02-25T06:58:26.342Z,6.30
2023-02-25T07:00:53.412Z,5.40
2023-02-25T07:03:20.593Z,4.63
2023-02-25T07:05:47.497Z,6.10
2023-02-25T07:08:14.384Z,6.35
2023-02-25T07:10:41.710Z,7.55
2023-02-25T07:13:12.278Z,5.70
2023-02-25T07:15:39.320Z,4.95
2023-02-25T07:18:06.434Z,4.00
2023-02-25T07:20:33.480Z,4.70
2023-02-25T07:23:03.682Z,4.15
2023-02-25T07:25:30.778Z,5.78
2023-02-25T07:27:57.880Z,3.93
2023-02-25T07:30:24.764Z,5.90
2023-02-25T07:32:51.735Z,6.47
2023-02-25T07:35:21.645Z,9.30
2023-02-25T07:37:48.691Z,6.47
2023-02-25T07:40:16.849Z,6.25
2023-02-25T07:42:44.021Z,4.03
2023-02-25T07:45:12.765Z,4.70
2023-02-25T07:47:40.165Z,4.97
2023-02-25T07:50:11.695Z,3.63
2023-02-25T07:52:39.719Z,5.28
2023-02-25T07:55:07.462Z,9.82
2023-02-25T07:57:38.130Z,7.63
2023-02-25T08:00:10.380Z,3.30
2023-02-25T08:02:40.034Z,4.30
2023-02-25T08:05:07.790Z,7.35
2023-02-25T08:07:34.927Z,4.05
2023-02-25T08:10:02.172Z,3.87
2023-02-25T08:12:30.172Z,4.63
2023-02-25T08:17:31.275Z,6.15
2023-02-25T08:19:58.323Z,4.57
2023-02-25T08:22:25.217Z,5.82
2023-02-25T08:24:52.245Z,4.38
2023-02-25T08:27:19.336Z,5.00
2023-02-25T08:29:46.283Z,5.28
2023-02-25T08:32:13.397Z,3.92
2023-02-25T08:34:40.537Z,5.27
2023-02-25T08:37:11.135Z,4.22
2023-02-25T08:39:39.535Z,3.92
2023-02-25T08:42:06.540Z,3.38
2023-02-25T08:44:33.533Z,4.38
2023-02-25T08:47:02.833Z,5.63
2023-02-25T08:49:30.537Z,2.90
2023-02-25T08:51:57.850Z,2.40
2023-02-25T08:54:25.313Z,3.40
2023-02-25T08:56:55.496Z,3.30
2023-02-25T08:59:23.205Z,2.30
2023-02-25T09:01:52.767Z,3.88
2023-02-25T09:04:23.840Z,3.60
2023-02-25T09:06:53.836Z,2.67
2023-02-25T09:09:21.651Z,1.98
2023-02-25T09:11:49.388Z,2.42
2023-02-25T09:14:17.270Z,2.08
2023-02-25T09:16:45.731Z,2.13
2023-02-25T09:19:16.339Z,1.63
2023-02-25T09:21:46.484Z,1.50
2023-02-25T09:24:14.380Z,2.47
2023-02-25T09:26:41.376Z,1.75
2023-02-25T09:29:08.636Z,1.02
2023-02-25T09:31:37.609Z,2.42
2023-02-25T09:34:07.676Z,2.20
2023-02-25T09:36:35.483Z,1.90
2023-02-25T09:39:02.624Z,1.60
2023-02-25T09:41:40.926Z,1.65
2023-02-25T09:44:20.733Z,1.58
2023-02-25T09:46:53.461Z,1.85
2023-02-25T09:49:23.398Z,1.42
2023-02-25T09:51:58.255Z,1.45
2023-02-25T09:54:54.420Z,1.30
2023-02-25T09:57:24.199Z,2.50
2023-02-25T09:59:55.796Z,2.35
2023-02-25T10:02:39.447Z,1.33
2023-02-25T10:05:22.279Z,1.65
2023-02-25T10:08:01.375Z,1.55
2023-02-25T10:10:50.512Z,2.15
2023-02-25T10:13:26.477Z,1.67
2023-02-25T10:16:12.175Z,1.67
2023-02-25T10:19:04.126Z,0.80
2023-02-25T10:21:50.642Z,0.90
2023-02-25T10:24:33.861Z,2.60
2023-02-25T10:27:33.238Z,0.60
2023-02-25T10:30:07.419Z,1.08
2023-02-25T10:32:39.660Z,2.83
2023-02-25T10:35:20.267Z,1.08
2023-02-25T10:37:47.833Z,1.05
2023-02-25T10:40:22.447Z,1.48
2023-02-25T10:42:55.166Z,0.82
2023-02-25T10:45:28.359Z,0.52
2023-02-25T10:48:08.051Z,0.70
2023-02-25T10:50:45.468Z,1.42
2023-02-25T10:53:17.753Z,2.20
2023-02-25T10:55:52.738Z,0.60
2023-02-25T10:58:26.524Z,0.55
2023-02-25T11:01:05.513Z,0.70
2023-02-25T11:03:44.403Z,0.80
2023-02-25T11:06:28.785Z,0.55
2023-02-25T11:08:58.701Z,0.82
2023-02-25T11:11:28.663Z,0.60
2023-02-25T11:14:05.345Z,0.65
2023-02-25T11:16:36.243Z,1.27
2023-02-25T11:19:31.687Z,0.43
2023-02-25T11:22:00.906Z,0.80
2023-02-25T11:24:36.661Z,0.30
2023-02-25T11:27:05.974Z,1.85
2023-02-25T11:29:39.988Z,0.60
2023-02-25T11:32:20.094Z,0.85
2023-02-25T11:35:05.167Z,0.93
2023-02-25T11:37:43.292Z,0.57
2023-02-25T11:40:28.014Z,0.70
2023-02-25T11:43:07.878Z,1.90
2023-02-25T11:45:40.436Z,1.90
2023-02-25T11:48:39.188Z,1.35
2023-02-25T11:51:34.575Z,1.27
2023-02-25T11:54:23.414Z,0.85
2023-02-25T11:57:05.311Z,1.35
2023-02-25T11:59:45.415Z,0.47
2023-02-25T12:02:36.893Z,0.65
2023-02-25T12:05:27.635Z,0.30
2023-02-25T12:08:24.046Z,1.98
2023-02-25T12:10:54.279Z,1.67
2023-02-25T12:14:09.243Z,0.63
2023-02-25T12:16:48.227Z,0.40
2023-02-25T12:19:39.591Z,1.02
2023-02-25T12:22:34.015Z,0.80
2023-02-25T12:25:30.088Z,1.15
2023-02-25T12:28:34.378Z,0.75
2023-02-25T12:31:28.801Z,3.33
2023-02-25T12:34:13.717Z,1.25
2023-02-25T12:37:02.328Z,2.03
2023-02-25T12:40:02.114Z,0.75
2023-02-25T12:42:50.709Z,1.30
2023-02-25T12:45:23.809Z,0.55
2023-02-25T12:48:16.699Z,2.25
2023-02-25T12:51:15.656Z,2.08
2023-02-25T12:54:13.512Z,1.17
2023-02-25T12:57:00.369Z,0.52
2023-02-25T12:59:28.243Z,0.60
2023-02-25T13:02:31.755Z,0.63
2023-02-25T13:05:14.919Z,1.05
2023-02-25T13:08:10.582Z,3.03
2023-02-25T13:10:54.127Z,2.47
2023-02-25T13:13:47.018Z,0.98
2023-02-25T13:16:18.144Z,2.30
2023-02-25T13:19:18.278Z,1.25
2023-02-25T13:21:51.214Z,1.70
2023-02-25T13:24:46.643Z,1.60
2023-02-25T13:27:14.136Z,2.38
2023-02-25T13:30:12.559Z,1.58
2023-02-25T13:32:49.193Z,1.08
2023-02-25T13:35:26.915Z,1.38
2023-02-25T13:41:23.277Z,1.00
2023-02-25T13:44:21.722Z,1.10
2023-02-25T13:47:10.989Z,2.40
2023-02-25T13:49:52.418Z,3.08
2023-02-25T13:52:29.660Z,1.05
2023-02-25T13:55:27.503Z,1.35
2023-02-25T13:58:30.146Z,1.30
2023-02-25T14:01:30.897Z,1.75
2023-02-25T14:04:22.290Z,0.93
2023-02-25T14:07:22.228Z,1.10
2023-02-25T14:10:02.609Z,2.20
2023-02-25T14:12:58.261Z,0.70
2023-02-25T14:15:59.207Z,0.82
2023-02-25T14:19:02.915Z,1.42
2023-02-25T14:21:48.156Z,1.58
2023-02-25T14:24:53.801Z,1.70
2023-02-25T14:27:35.415Z,3.33
2023-02-25T14:30:23.338Z,2.08
2023-02-25T14:33:25.827Z,1.98
2023-02-25T14:36:31.517Z,2.42
2023-02-25T14:39:24.913Z,1.90
2023-02-25T14:42:43.704Z,1.55
2023-02-25T14:45:55.891Z,2.15
2023-02-25T14:48:53.172Z,0.80
2023-02-25T14:51:37.966Z,0.95
2023-02-25T14:54:36.552Z,1.15
2023-02-25T14:57:26.268Z,0.50
2023-02-25T15:00:17.920Z,0.90
2023-02-25T15:03:33.520Z,1.13
2023-02-25T15:06:14.865Z,0.93
2023-02-25T15:08:49.804Z,2.85
2023-02-25T15:11:31.903Z,0.77
2023-02-25T15:14:22.885Z,0.40
2023-02-25T15:17:19.143Z,2.13
2023-02-25T15:20:03.685Z,4.53
2023-02-25T15:22:33.927Z,3.85
2023-02-25T15:25:21.662Z,2.55
2023-02-25T15:27:56.904Z,2.33
2023-02-25T15:30:28.313Z,0.70
2023-02-25T15:33:14.659Z,0.60
2023-02-25T15:35:45.908Z,3.17
2023-02-25T15:38:40.268Z,0.95
2023-02-25T15:41:28.106Z,1.10
2023-02-25T15:44:10.464Z,0.55
2023-02-25T15:46:42.118Z,1.77
2023-02-25T15:49:34.159Z,1.52
2023-02-25T15:52:05.253Z,2.88
2023-02-25T15:54:34.301Z,2.30
2023-02-25T15:57:05.120Z,1.92
2023-02-25T15:59:47.490Z,1.73
2023-02-25T16:02:31.287Z,1.33
2023-02-25T16:05:22.317Z,1.63
2023-02-25T16:08:00.754Z,0.80
2023-02-25T16:10:38.554Z,1.10
2023-02-25T16:13:16.276Z,1.67
2023-02-25T16:15:52.741Z,1.08
2023-02-25T16:18:35.179Z,3.55
2023-02-25T16:21:09.964Z,1.38
2023-02-25T16:23:41.818Z,0.70
2023-02-25T16:26:28.222Z,1.50
2023-02-25T16:29:03.883Z,0.53
2023-02-25T16:32:03.475Z,0.73
2023-02-25T16:35:28.902Z,20.15
2023-02-25T16:45:31.648Z,2.65
2023-02-25T16:48:11.261Z,1.25
2023-02-25T16:50:40.845Z,1.85
2023-02-25T16:53:21.873Z,1.30
2023-02-25T16:59:46.834Z,1.30
2023-02-25T17:02:16.383Z,2.22
2023-02-25T17:04:48.453Z,1.17
2023-02-25T17:07:19.422Z,2.90
2023-02-25T17:09:53.665Z,2.22
2023-02-25T17:12:26.704Z,3.83
2023-02-25T17:14:54.676Z,3.25
2023-02-25T17:17:30.215Z,1.60
2023-02-25T17:19:58.034Z,1.95
2023-02-25T17:22:26.371Z,4.88
2023-02-25T17:24:56.362Z,2.42
2023-02-25T17:27:24.695Z,2.83
2023-02-25T17:29:51.699Z,1.50
2023-02-25T17:32:20.188Z,1.75
2023-02-25T17:34:49.027Z,2.42
2023-02-25T17:37:16.887Z,1.77
2023-02-25T17:39:45.141Z,1.90
2023-02-25T17:45:00.921Z,33.08
2023-02-25T17:47:30.959Z,13.80
2023-02-25T17:50:02.242Z,8.73
2023-02-25T17:52:31.865Z,7.32
2023-02-25T17:55:05.083Z,4.22
2023-02-25T17:57:33.508Z,2.42
2023-02-25T18:00:22.821Z,6.35
2023-02-25T18:03:21.050Z,3.03
2023-02-25T18:05:53.713Z,2.00
2023-02-25T18:08:25.670Z,4.07
2023-02-25T18:11:17.712Z,1.60
2023-02-25T18:13:44.651Z,4.57
2023-02-25T18:16:30.063Z,6.10
2023-02-25T18:18:58.103Z,2.42
2023-02-25T18:23:52.658Z,3.15
2023-02-25T18:26:24.005Z,4.95
2023-02-25T18:28:57.508Z,2.67
2023-02-25T18:31:24.967Z,3.78
2023-02-25T18:33:52.790Z,1.55
2023-02-25T18:36:28.805Z,2.58
2023-02-25T18:39:01.556Z,4.55
2023-02-25T18:41:28.474Z,2.70
2023-02-25T18:43:55.346Z,1.50
2023-02-25T18:46:22.584Z,1.80
2023-02-25T18:48:49.548Z,3.17
2023-02-25T18:51:16.317Z,2.88
2023-02-25T18:53:43.364Z,1.70
2023-02-25T18:56:16.393Z,3.23
2023-02-25T18:58:44.397Z,2.80
2023-02-25T19:01:21.307Z,2.92
2023-02-25T19:03:48.463Z,3.43
2023-02-25T19:06:15.496Z,1.30
2023-02-25T19:08:42.506Z,2.87
2023-02-25T19:11:20.204Z,2.00
2023-02-25T19:13:47.142Z,3.28
2023-02-25T19:16:14.235Z,2.92
2023-02-25T19:18:42.964Z,2.57
2023-02-25T19:21:20.768Z,2.28
2023-02-25T19:26:18.359Z,3.08
2023-02-25T19:28:45.261Z,4.15
2023-02-25T19:31:12.572Z,3.47
2023-02-25T19:33:39.890Z,1.73
2023-02-25T19:36:08.724Z,5.40
2023-02-25T19:38:35.878Z,1.95
2023-02-25T19:41:05.972Z,1.77
2023-02-25T19:43:33.499Z,2.58
2023-02-25T19:46:00.475Z,3.28
2023-02-25T19:48:28.071Z,4.57
2023-02-25T19:50:55.166Z,2.10
2023-02-25T19:53:22.028Z,2.33
2023-02-25T19:55:48.943Z,2.78
2023-02-25T19:58:15.865Z,1.30
2023-02-25T20:00:45.907Z,1.80
2023-02-25T20:03:14.353Z,2.97
2023-02-25T20:05:41.998Z,2.88
2023-02-25T20:08:09.658Z,4.97
2023-02-25T20:10:36.562Z,2.13
2023-02-25T20:13:03.405Z,3.05
2023-02-25T20:15:30.269Z,1.80
2023-02-25T20:17:57.457Z,1.45
2023-02-25T20:20:24.669Z,1.92
2023-02-25T20:22:51.679Z,2.47
2023-02-25T20:25:18.875Z,3.30
2023-02-25T20:27:45.744Z,3.30
2023-02-25T20:30:16.168Z,3.50
2023-02-25T20:32:44.881Z,1.15
2023-02-25T20:35:21.403Z,2.95
2023-02-25T20:38:28.029Z,1.33
2023-02-25T20:40:54.961Z,3.00
2023-02-25T20:43:21.986Z,2.17
2023-02-25T20:45:49.148Z,1.77
2023-02-25T20:48:29.453Z,3.07
2023-02-25T20:50:57.057Z,4.13
2023-02-25T20:53:24.802Z,3.22
2023-02-25T20:55:55.820Z,3.10
2023-02-25T20:58:22.981Z,2.53
2023-02-25T21:00:49.885Z,1.47
2023-02-25T21:03:16.681Z,2.60
2023-02-25T21:05:43.744Z,3.40
2023-02-25T21:08:10.658Z,2.00
2023-02-25T21:10:37.521Z,3.03
2023-02-25T21:13:04.428Z,3.83
2023-02-25T21:15:31.401Z,2.40
2023-02-25T21:17:58.304Z,2.35
2023-02-25T21:20:25.228Z,1.40
2023-02-25T21:22:52.109Z,2.10
2023-02-25T21:25:19.009Z,3.13
2023-02-25T21:27:45.984Z,1.75
2023-02-25T21:30:13.280Z,3.25
2023-02-25T21:32:40.218Z,1.70
2023-02-25T21:35:07.364Z,1.83
2023-02-25T21:37:34.394Z,1.63
2023-02-25T21:40:01.279Z,0.73
2023-02-25T21:42:28.397Z,3.67
2023-02-25T21:44:55.265Z,2.13
2023-02-25T21:47:22.283Z,1.95
2023-02-25T21:49:51.287Z,2.92
2023-02-25T21:52:18.662Z,5.03
2023-02-25T21:54:46.090Z,4.78
2023-02-25T21:57:13.001Z,1.17
2023-02-25T21:59:39.800Z,2.05
2023-02-25T22:02:07.216Z,2.50
2023-02-25T22:04:33.986Z,1.60
2023-02-25T22:07:00.826Z,4.20
2023-02-25T22:09:27.749Z,1.17
2023-02-25T22:11:54.613Z,1.30
2023-02-25T22:14:21.426Z,3.97
2023-02-25T22:16:48.901Z,4.43
2023-02-25T22:19:15.807Z,2.40
2023-02-25T22:21:42.675Z,5.10
2023-02-25T22:24:09.643Z,3.15
2023-02-25T22:26:36.863Z,1.30
2023-02-25T22:29:07.614Z,4.28
2023-02-25T22:31:35.109Z,1.30
2023-02-25T22:34:02.555Z,4.18
2023-02-25T22:36:29.484Z,1.92
2023-02-25T22:38:56.736Z,4.90
2023-02-25T22:41:26.577Z,2.65
2023-02-25T22:43:53.912Z,2.88
2023-02-25T22:46:22.186Z,2.67
2023-02-25T22:48:50.591Z,4.80
2023-02-25T22:51:24.055Z,3.85
2023-02-25T22:53:51.457Z,5.13
2023-02-25T22:56:18.464Z,1.90
2023-02-25T22:58:45.426Z,3.65
2023-02-25T23:01:13.934Z,3.50
2023-02-25T23:03:43.799Z,2.55
2023-02-25T23:06:15.317Z,2.85
2023-02-25T23:08:43.208Z,2.30
2023-02-25T23:11:13.359Z,2.53
2023-02-25T23:13:47.395Z,2.85
2023-02-25T23:16:20.840Z,4.80
2023-02-25T23:18:49.110Z,4.00
2023-02-25T23:21:19.096Z,4.35
2023-02-25T23:23:51.849Z,3.92
2023-02-25T23:26:24.745Z,3.35
2023-02-25T23:28:56.445Z,8.18
2023-02-25T23:31:26.270Z,3.00
2023-02-25T23:34:02.129Z,1.67
2023-02-25T23:36:29.104Z,6.10
2023-02-25T23:38:58.461Z,5.53
2023-02-25T23:41:26.099Z,3.55
2023-02-25T23:46:25.916Z,4.95
2023-02-25T23:48:57.509Z,5.30
2023-02-25T23:51:24.885Z,2.63
2023-02-25T23:53:57.326Z,3.03
2023-02-25T23:56:24.809Z,3.60
2023-02-25T23:58:55.527Z,1.70
